createdAt,value
2023-05-02T00:01:22.619Z,100110.00
2023-05-02T00:03:50.753Z,100111.00
2023-05-02T00:06:18.394Z,100119.00
2023-05-02T00:08:45.761Z,100119.00
2023-05-02T00:11:13.697Z,100114.00
2023-05-02T00:13:40.965Z,100122.00
2023-05-02T00:16:08.293Z,100115.00
2023-05-02T00:18:35.588Z,100114.00
2023-05-02T00:21:03.809Z,100114.00
2023-05-02T00:23:31.096Z,100118.00
2023-05-02T00:25:58.321Z,100111.00
2023-05-02T00:28:29.140Z,100098.00
2023-05-02T00:30:56.423Z,100109.00
2023-05-02T00:33:23.722Z,100116.00
2023-05-02T00:35:51.604Z,100115.00
2023-05-02T00:38:19.752Z,100113.00
2023-05-02T00:40:48.229Z,100110.00
2023-05-02T00:43:16.449Z,100119.00
2023-05-02T00:45:50.045Z,100115.00
2023-05-02T00:48:19.838Z,100113.00
2023-05-02T00:50:47.089Z,100113.00
2023-05-02T00:53:14.767Z,100110.00
2023-05-02T00:55:42.771Z,100110.00
2023-05-02T00:58:13.668Z,100105.00
2023-05-02T01:00:56.119Z,100122.00
2023-05-02T01:03:35.355Z,100112.00
2023-05-02T01:06:11.929Z,100102.00
2023-05-02T01:08:46.756Z,100102.00
2023-05-02T01:11:26.955Z,100103.00
2023-05-02T01:13:56.283Z,100115.00
2023-05-02T01:16:25.131Z,100102.00
2023-05-02T01:18:54.036Z,100102.00
2023-05-02T01:21:21.896Z,100105.00
2023-05-02T01:24:02.476Z,100107.00
2023-05-02T01:26:40.770Z,100104.00
2023-05-02T01:29:11.268Z,100101.00
2023-05-02T01:31:43.337Z,100103.00
2023-05-02T01:34:11.436Z,100112.00
2023-05-02T01:36:44.283Z,100099.00
2023-05-02T01:39:13.983Z,100109.00
2023-05-02T01:41:41.928Z,100106.00
2023-05-02T01:44:12.830Z,100102.00
2023-05-02T01:46:43.118Z,100104.00
2023-05-02T01:49:11.312Z,100099.00
2023-05-02T01:51:45.333Z,100108.00
2023-05-02T01:54:15.089Z,100112.00
2023-05-02T01:56:43.834Z,100113.00
2023-05-02T01:59:15.171Z,100110.00
2023-05-02T02:01:44.149Z,100113.00
2023-05-02T02:04:14.470Z,100115.00
2023-05-02T02:06:45.741Z,100122.00
2023-05-02T02:09:13.677Z,100119.00
2023-05-02T02:11:47.044Z,100116.00
2023-05-02T02:14:21.036Z,100122.00
2023-05-02T02:16:50.669Z,100120.00
2023-05-02T02:19:18.835Z,100130.00
2023-05-02T02:21:48.772Z,100135.00
2023-05-02T02:24:18.330Z,100140.00
2023-05-02T02:26:46.183Z,100143.00
2023-05-02T02:29:13.423Z,100131.00
2023-05-02T02:31:41.332Z,100140.00
2023-05-02T02:34:08.835Z,100148.00
2023-05-02T02:36:44.722Z,100139.00
2023-05-02T02:39:20.027Z,100143.00
2023-05-02T02:41:55.563Z,100155.00
2023-05-02T02:44:34.165Z,100163.00
2023-05-02T02:47:10.256Z,100155.00
2023-05-02T02:49:48.205Z,100173.00
2023-05-02T02:52:24.358Z,100162.00
2023-05-02T02:54:57.071Z,100168.00
2023-05-02T02:57:31.759Z,100179.00
2023-05-02T03:00:06.846Z,100169.00
2023-05-02T03:02:36.692Z,100183.00
2023-05-02T03:05:05.838Z,100185.00
2023-05-02T03:07:33.805Z,100191.00
2023-05-02T03:10:04.117Z,100186.00
2023-05-02T03:12:31.665Z,100199.00
2023-05-02T03:15:22.572Z,100194.00
2023-05-02T03:17:50.608Z,100197.00
2023-05-02T03:20:18.278Z,100199.00
2023-05-02T03:22:45.715Z,100202.00
2023-05-02T03:25:12.959Z,100204.00
2023-05-02T03:27:40.227Z,100206.00
2023-05-02T03:30:08.959Z,100206.00
2023-05-02T03:32:36.296Z,100206.00
2023-05-02T03:35:05.079Z,100209.00
2023-05-02T03:37:33.584Z,100206.00
2023-05-02T03:40:01.169Z,100223.00
2023-05-02T03:42:28.736Z,100230.00
2023-05-02T03:44:56.037Z,100228.00
2023-05-02T03:47:23.366Z,100227.00
2023-05-02T03:49:52.341Z,100231.00
2023-05-02T03:52:20.288Z,100228.00
2023-05-02T03:54:47.529Z,100225.00
2023-05-02T03:57:14.870Z,100231.00
2023-05-02T03:59:44.947Z,100236.00
2023-05-02T04:02:12.296Z,100252.00
2023-05-02T04:04:40.386Z,100259.00
2023-05-02T04:07:09.189Z,100265.00
2023-05-02T04:09:37.706Z,100265.00
2023-05-02T04:12:05.492Z,100275.00
2023-05-02T04:14:32.760Z,100277.00
2023-05-02T04:17:00.076Z,100273.00
2023-05-02T04:19:27.393Z,100267.00
2023-05-02T04:21:54.624Z,100274.00
2023-05-02T04:24:21.894Z,100280.00
2023-05-02T04:26:49.852Z,100286.00
2023-05-02T04:29:17.174Z,100290.00
2023-05-02T04:31:44.664Z,100289.00
2023-05-02T04:34:11.927Z,100300.00
2023-05-02T04:36:39.566Z,100298.00
2023-05-02T04:39:07.217Z,100300.00
2023-05-02T04:41:34.509Z,100304.00
2023-05-02T04:44:03.080Z,100302.00
2023-05-02T04:46:30.448Z,100308.00
2023-05-02T04:48:57.737Z,100312.00
2023-05-02T04:51:25.103Z,100314.00
2023-05-02T04:53:52.361Z,100325.00
2023-05-02T04:56:19.609Z,100331.00
2023-05-02T04:58:46.856Z,100319.00
2023-05-02T05:01:14.818Z,100324.00
2023-05-02T05:03:42.641Z,100330.00
2023-05-02T05:06:10.040Z,100341.00
2023-05-02T05:08:37.319Z,100348.00
2023-05-02T05:11:05.170Z,100348.00
2023-05-02T05:13:32.470Z,100348.00
2023-05-02T05:15:59.800Z,100350.00
2023-05-02T05:18:27.837Z,100365.00
2023-05-02T05:20:55.130Z,100357.00
2023-05-02T05:23:22.360Z,100364.00
2023-05-02T05:25:49.847Z,100369.00
2023-05-02T05:28:17.908Z,100368.00
2023-05-02T05:30:45.178Z,100391.00
2023-05-02T05:33:12.774Z,100387.00
2023-05-02T05:35:40.812Z,100385.00
2023-05-02T05:38:08.369Z,100391.00
2023-05-02T05:40:35.656Z,100394.00
2023-05-02T05:43:02.914Z,100409.00
2023-05-02T05:45:30.457Z,100405.00
2023-05-02T05:47:57.767Z,100398.00
2023-05-02T05:50:25.148Z,100415.00
2023-05-02T05:52:53.047Z,100419.00
2023-05-02T05:55:20.318Z,100426.00
2023-05-02T05:57:47.587Z,100428.00
2023-05-02T06:00:16.095Z,100425.00
2023-05-02T06:02:43.448Z,100430.00
2023-05-02T06:05:10.840Z,100438.00
2023-05-02T06:07:38.181Z,100436.00
2023-05-02T06:10:08.805Z,100444.00
2023-05-02T06:12:36.088Z,100440.00
2023-05-02T06:15:03.886Z,100450.00
2023-05-02T06:17:31.123Z,100450.00
2023-05-02T06:19:58.621Z,100452.00
2023-05-02T06:22:26.122Z,100462.00
2023-05-02T06:24:53.412Z,100470.00
2023-05-02T06:27:21.397Z,100474.00
2023-05-02T06:29:51.726Z,100472.00
2023-05-02T06:32:19.212Z,100484.00
2023-05-02T06:34:46.458Z,100487.00
2023-05-02T06:37:13.813Z,100492.00
2023-05-02T06:39:41.136Z,100500.00
2023-05-02T06:42:08.391Z,100504.00
2023-05-02T06:44:36.352Z,100507.00
2023-05-02T06:47:05.242Z,100514.00
2023-05-02T06:49:32.581Z,100516.00
2023-05-02T06:52:00.054Z,100523.00
2023-05-02T06:54:27.317Z,100527.00
2023-05-02T06:56:54.837Z,100531.00
2023-05-02T06:59:22.151Z,100539.00
2023-05-02T07:01:50.369Z,100537.00
2023-05-02T07:04:17.615Z,100542.00
2023-05-02T07:06:45.700Z,100558.00
2023-05-02T07:09:12.965Z,100558.00
2023-05-02T07:11:40.269Z,100565.00
2023-05-02T07:14:07.830Z,100571.00
2023-05-02T07:16:35.207Z,100573.00
2023-05-02T07:19:03.900Z,100589.00
2023-05-02T07:21:31.691Z,100581.00
2023-05-02T07:23:59.094Z,100589.00
2023-05-02T07:26:26.902Z,100583.00
2023-05-02T07:28:54.160Z,100593.00
2023-05-02T07:31:21.412Z,100591.00
2023-05-02T07:33:48.756Z,100592.00
2023-05-02T07:36:17.429Z,100591.00
2023-05-02T07:38:44.714Z,100595.00
2023-05-02T07:41:14.540Z,100603.00
2023-05-02T07:43:41.801Z,100607.00
2023-05-02T07:46:09.139Z,100607.00
2023-05-02T07:48:36.518Z,100621.00
2023-05-02T07:51:07.297Z,100620.00
2023-05-02T07:53:35.380Z,100618.00
2023-05-02T07:56:04.282Z,100628.00
2023-05-02T07:58:31.547Z,100624.00
2023-05-02T08:00:58.836Z,100624.00
2023-05-02T08:03:27.232Z,100636.00
2023-05-02T08:05:54.804Z,100636.00
2023-05-02T08:08:22.987Z,100647.00
2023-05-02T08:10:50.892Z,100643.00
2023-05-02T08:13:18.177Z,100646.00
2023-05-02T08:15:45.737Z,100655.00
2023-05-02T08:18:13.045Z,100659.00
2023-05-02T08:20:40.559Z,100664.00
2023-05-02T08:23:08.051Z,100668.00
2023-05-02T08:25:35.324Z,100670.00
2023-05-02T08:28:03.540Z,100664.00
2023-05-02T08:30:30.844Z,100677.00
2023-05-02T08:32:58.085Z,100679.00
2023-05-02T08:35:25.417Z,100685.00
2023-05-02T08:37:52.646Z,100686.00
2023-05-02T08:40:30.386Z,100688.00
2023-05-02T08:43:10.257Z,100682.00
2023-05-02T08:45:40.940Z,100689.00
2023-05-02T08:48:10.858Z,100698.00
2023-05-02T08:50:38.751Z,100697.00
2023-05-02T08:53:06.576Z,100698.00
2023-05-02T08:55:36.102Z,100704.00
2023-05-02T08:58:04.280Z,100703.00
2023-05-02T09:00:38.173Z,100706.00
2023-05-02T09:03:12.184Z,100698.00
2023-05-02T09:05:41.885Z,100711.00
2023-05-02T09:08:09.354Z,100718.00
2023-05-02T09:10:37.229Z,100716.00
2023-05-02T09:13:33.365Z,100720.00
2023-05-02T09:16:02.710Z,100723.00
2023-05-02T09:18:32.145Z,100728.00
2023-05-02T09:21:00.420Z,100723.00
2023-05-02T09:23:41.217Z,100734.00
2023-05-02T09:26:16.767Z,100734.00
2023-05-02T09:28:45.564Z,100724.00
2023-05-02T09:31:18.651Z,100729.00
2023-05-02T09:33:46.771Z,100742.00
2023-05-02T09:36:15.608Z,100736.00
2023-05-02T09:38:43.646Z,100738.00
2023-05-02T09:41:11.270Z,100740.00
2023-05-02T09:43:39.191Z,100740.00
2023-05-02T09:46:07.706Z,100746.00
2023-05-02T09:48:52.811Z,100738.00
2023-05-02T09:51:21.475Z,100735.00
2023-05-02T09:53:50.176Z,100734.00
2023-05-02T09:56:18.584Z,100746.00
2023-05-02T09:58:48.560Z,100750.00
2023-05-02T10:01:16.626Z,100746.00
2023-05-02T10:03:48.194Z,100761.00
2023-05-02T10:06:16.538Z,100755.00
2023-05-02T10:08:46.482Z,100759.00
2023-05-02T10:11:14.181Z,100758.00
2023-05-02T10:13:43.140Z,100758.00
2023-05-02T10:16:14.821Z,100765.00
2023-05-02T10:18:47.952Z,100766.00
2023-05-02T10:21:18.660Z,100759.00
2023-05-02T10:23:46.329Z,100768.00
2023-05-02T10:26:17.716Z,100772.00
2023-05-02T10:28:45.530Z,100768.00
2023-05-02T10:31:14.736Z,100757.00
2023-05-02T10:33:42.083Z,100764.00
2023-05-02T10:36:12.354Z,100765.00
2023-05-02T10:38:40.082Z,100773.00
2023-05-02T10:41:12.349Z,100768.00
2023-05-02T10:43:39.933Z,100776.00
2023-05-02T10:46:32.169Z,100784.00
2023-05-02T10:49:04.411Z,100786.00
2023-05-02T10:51:33.507Z,100783.00
2023-05-02T10:54:20.582Z,100782.00
2023-05-02T10:57:08.758Z,100780.00
2023-05-02T10:59:37.895Z,100772.00
2023-05-02T11:02:07.394Z,100783.00
2023-05-02T11:05:07.717Z,100785.00
2023-05-02T11:07:37.585Z,100783.00
2023-05-02T11:10:27.508Z,100787.00
2023-05-02T11:12:56.097Z,100788.00
2023-05-02T11:15:55.584Z,100790.00
2023-05-02T11:18:22.864Z,100795.00
2023-05-02T11:20:50.482Z,100789.00
2023-05-02T11:23:25.319Z,100789.00
2023-05-02T11:25:56.632Z,100797.00
2023-05-02T11:28:47.190Z,100793.00
2023-05-02T11:32:03.503Z,100796.00
2023-05-02T11:34:42.117Z,100796.00
2023-05-02T11:37:13.851Z,100797.00
2023-05-02T11:39:41.942Z,100801.00
2023-05-02T11:42:09.245Z,100798.00
2023-05-02T11:44:57.580Z,100794.00
2023-05-02T11:47:26.214Z,100791.00
2023-05-02T11:49:54.400Z,100796.00
2023-05-02T11:52:22.489Z,100797.00
2023-05-02T11:54:53.473Z,100797.00
2023-05-02T11:57:21.343Z,100804.00
2023-05-02T11:59:52.562Z,100802.00
2023-05-02T12:02:21.589Z,100797.00
2023-05-02T12:04:49.020Z,100797.00
2023-05-02T12:07:16.327Z,100801.00
2023-05-02T12:09:54.173Z,100803.00
2023-05-02T12:12:21.627Z,100802.00
2023-05-02T12:14:49.126Z,100797.00
2023-05-02T12:17:16.793Z,100806.00
2023-05-02T12:19:44.508Z,100806.00
2023-05-02T12:22:12.734Z,100809.00
2023-05-02T12:24:40.694Z,100806.00
2023-05-02T12:27:13.334Z,100811.00
2023-05-02T12:29:41.584Z,100809.00
2023-05-02T12:32:08.812Z,100795.00
2023-05-02T12:34:36.854Z,100793.00
2023-05-02T12:37:05.118Z,100799.00
2023-05-02T12:39:35.968Z,100797.00
2023-05-02T12:42:10.522Z,100797.00
2023-05-02T12:44:40.018Z,100804.00
2023-05-02T12:47:08.197Z,100806.00
2023-05-02T12:49:49.593Z,100800.00
2023-05-02T12:52:16.954Z,100806.00
2023-05-02T12:54:44.650Z,100806.00
2023-05-02T12:57:23.703Z,100804.00
2023-05-02T12:59:53.815Z,100806.00
2023-05-02T13:02:22.074Z,100813.00
2023-05-02T13:04:49.414Z,100802.00
2023-05-02T13:07:16.722Z,100812.00
2023-05-02T13:09:44.176Z,100810.00
2023-05-02T13:12:11.929Z,100812.00
2023-05-02T13:14:39.401Z,100809.00
2023-05-02T13:17:08.346Z,100815.00
2023-05-02T13:19:35.952Z,100806.00
2023-05-02T13:22:04.580Z,100815.00
2023-05-02T13:24:31.849Z,100819.00
2023-05-02T13:26:59.099Z,100817.00
2023-05-02T13:29:26.350Z,100810.00
2023-05-02T13:31:53.530Z,100810.00
2023-05-02T13:34:21.420Z,100818.00
2023-05-02T13:36:48.620Z,100821.00
2023-05-02T13:39:16.088Z,100818.00
2023-05-02T13:41:43.489Z,100812.00
2023-05-02T13:44:10.810Z,100832.00
2023-05-02T13:46:38.240Z,100819.00
2023-05-02T13:49:05.719Z,100813.00
2023-05-02T13:51:34.004Z,100824.00
2023-05-02T13:54:01.678Z,100825.00
2023-05-02T13:56:29.216Z,100819.00
2023-05-02T13:58:56.548Z,100823.00
2023-05-02T14:01:25.886Z,100815.00
2023-05-02T14:03:53.486Z,100826.00
2023-05-02T14:06:20.936Z,100830.00
2023-05-02T14:08:50.496Z,100839.00
2023-05-02T14:11:17.934Z,100835.00
2023-05-02T14:13:45.181Z,100839.00
2023-05-02T14:16:12.487Z,100848.00
2023-05-02T14:18:39.779Z,100854.00
2023-05-02T14:21:07.126Z,100862.00
2023-05-02T14:23:34.826Z,100856.00
2023-05-02T14:26:03.274Z,100864.00
2023-05-02T14:28:30.572Z,100869.00
2023-05-02T14:30:57.798Z,100863.00
2023-05-02T14:33:25.389Z,100875.00
2023-05-02T14:35:52.643Z,100882.00
2023-05-02T14:38:19.989Z,100872.00
2023-05-02T14:40:47.298Z,100870.00
2023-05-02T14:43:15.361Z,100875.00
2023-05-02T14:45:42.699Z,100892.00
2023-05-02T14:48:13.599Z,100882.00
2023-05-02T14:50:41.021Z,100885.00
2023-05-02T14:53:08.280Z,100896.00
2023-05-02T14:55:38.068Z,100903.00
2023-05-02T14:58:06.758Z,100894.00
2023-05-02T15:00:37.458Z,100914.00
2023-05-02T15:03:07.388Z,100906.00
2023-05-02T15:05:35.940Z,100906.00
2023-05-02T15:08:03.270Z,100905.00
2023-05-02T15:10:30.545Z,100910.00
2023-05-02T15:12:57.852Z,100921.00
2023-05-02T15:15:25.314Z,100911.00
2023-05-02T15:17:53.324Z,100910.00
2023-05-02T15:20:20.848Z,100920.00
2023-05-02T15:22:48.738Z,100918.00
2023-05-02T15:25:16.073Z,100920.00
2023-05-02T15:27:43.546Z,100918.00
2023-05-02T15:30:11.578Z,100916.00
2023-05-02T15:32:38.863Z,100927.00
2023-05-02T15:35:08.119Z,100936.00
2023-05-02T15:37:35.763Z,100929.00
2023-05-02T15:40:03.569Z,100923.00
2023-05-02T15:42:31.302Z,100931.00
2023-05-02T15:44:58.530Z,100934.00
2023-05-02T15:47:25.850Z,100933.00
2023-05-02T15:49:54.314Z,100942.00
2023-05-02T15:52:22.441Z,100943.00
2023-05-02T15:54:50.951Z,100939.00
2023-05-02T15:57:18.445Z,100942.00
2023-05-02T15:59:45.684Z,100939.00
2023-05-02T16:02:13.090Z,100949.00
2023-05-02T16:04:42.296Z,100957.00
2023-05-02T16:07:10.453Z,100957.00
2023-05-02T16:09:39.062Z,100964.00
2023-05-02T16:12:06.984Z,100965.00
2023-05-02T16:14:34.451Z,100970.00
2023-05-02T16:17:01.679Z,100967.00
2023-05-02T16:19:29.129Z,100973.00
2023-05-02T16:21:56.350Z,100964.00
2023-05-02T16:24:23.667Z,100970.00
2023-05-02T16:26:51.548Z,100981.00
2023-05-02T16:29:18.769Z,100984.00
2023-05-02T16:31:46.079Z,100985.00
2023-05-02T16:34:13.391Z,100984.00
2023-05-02T16:36:40.870Z,100979.00
2023-05-02T16:39:09.010Z,100992.00
2023-05-02T16:41:36.287Z,100989.00
2023-05-02T16:44:04.559Z,100991.00
2023-05-02T16:46:32.208Z,100996.00
2023-05-02T16:48:59.533Z,100995.00
2023-05-02T16:51:27.197Z,100988.00
2023-05-02T16:53:54.563Z,100994.00
2023-05-02T16:56:21.996Z,100998.00
2023-05-02T16:58:49.392Z,100989.00
2023-05-02T17:01:17.729Z,101001.00
2023-05-02T17:03:45.048Z,101004.00
2023-05-02T17:06:12.457Z,101016.00
2023-05-02T17:08:40.006Z,101013.00
2023-05-02T17:11:07.337Z,101017.00
2023-05-02T17:13:34.823Z,101016.00
2023-05-02T17:16:02.778Z,101019.00
2023-05-02T17:18:30.708Z,101033.00
2023-05-02T17:20:58.090Z,101032.00
2023-05-02T17:23:27.536Z,101047.00
2023-05-02T17:25:54.857Z,101038.00
2023-05-02T17:28:22.114Z,101054.00
2023-05-02T17:30:53.718Z,101051.00
2023-05-02T17:33:21.193Z,101057.00
2023-05-02T17:35:55.657Z,101050.00
2023-05-02T17:38:22.921Z,101059.00
2023-05-02T17:40:50.212Z,101063.00
2023-05-02T17:43:17.463Z,101066.00
2023-05-02T17:45:44.807Z,101071.00
2023-05-02T17:48:12.331Z,101066.00
2023-05-02T17:50:40.110Z,101073.00
2023-05-02T17:53:08.513Z,101076.00
2023-05-02T17:55:37.326Z,101074.00
2023-05-02T17:58:04.665Z,101073.00
2023-05-02T18:00:31.954Z,101077.00
2023-05-02T18:02:59.303Z,101075.00
2023-05-02T18:05:27.396Z,101079.00
2023-05-02T18:07:55.294Z,101085.00
2023-05-02T18:10:23.305Z,101090.00
2023-05-02T18:12:50.678Z,101095.00
2023-05-02T18:15:18.134Z,101096.00
2023-05-02T18:17:45.509Z,101100.00
2023-05-02T18:20:13.659Z,101109.00
2023-05-02T18:22:41.426Z,101117.00
2023-05-02T18:25:09.032Z,101115.00
2023-05-02T18:27:36.991Z,101125.00
2023-05-02T18:30:05.397Z,101115.00
2023-05-02T18:32:34.019Z,101122.00
2023-05-02T18:35:01.656Z,101119.00
2023-05-02T18:37:30.772Z,101120.00
2023-05-02T18:39:58.112Z,101115.00
2023-05-02T18:42:25.426Z,101134.00
2023-05-02T18:44:53.364Z,101129.00
2023-05-02T18:47:21.126Z,101134.00
2023-05-02T18:49:49.715Z,101147.00
2023-05-02T18:52:17.072Z,101139.00
2023-05-02T18:54:44.341Z,101144.00
2023-05-02T18:57:11.962Z,101141.00
2023-05-02T18:59:39.246Z,101136.00
2023-05-02T19:02:07.481Z,101146.00
2023-05-02T19:04:35.040Z,101143.00
2023-05-02T19:07:02.284Z,101147.00
2023-05-02T19:09:29.661Z,101152.00
2023-05-02T19:11:58.338Z,101154.00
2023-05-02T19:14:26.628Z,101156.00
2023-05-02T19:16:54.059Z,101153.00
2023-05-02T19:19:22.723Z,101158.00
2023-05-02T19:21:50.509Z,101165.00
2023-05-02T19:24:19.347Z,101161.00
2023-05-02T19:26:49.499Z,101169.00
2023-05-02T19:29:17.224Z,101173.00
2023-05-02T19:31:45.595Z,101169.00
2023-05-02T19:34:12.928Z,101162.00
2023-05-02T19:36:41.237Z,101163.00
2023-05-02T19:39:12.426Z,101184.00
2023-05-02T19:41:41.720Z,101173.00
2023-05-02T19:44:08.960Z,101176.00
2023-05-02T19:46:36.337Z,101177.00
2023-05-02T19:49:03.598Z,101197.00
2023-05-02T19:51:33.433Z,101182.00
2023-05-02T19:54:01.842Z,101190.00
2023-05-02T19:56:29.974Z,101187.00
2023-05-02T19:58:57.988Z,101192.00
2023-05-02T20:01:27.582Z,101198.00
2023-05-02T20:03:54.984Z,101199.00
2023-05-02T20:06:22.407Z,101199.00
2023-05-02T20:08:50.349Z,101193.00
2023-05-02T20:11:18.301Z,101204.00
2023-05-02T20:13:45.520Z,101203.00
2023-05-02T20:16:13.652Z,101207.00
2023-05-02T20:18:40.963Z,101209.00
2023-05-02T20:21:08.283Z,101208.00
2023-05-02T20:23:35.489Z,101209.00
2023-05-02T20:26:03.318Z,101207.00
2023-05-02T20:28:31.296Z,101214.00
2023-05-02T20:30:58.576Z,101217.00
2023-05-02T20:33:37.035Z,101223.00
2023-05-02T20:36:12.725Z,101215.00
2023-05-02T20:38:41.682Z,101221.00
2023-05-02T20:41:11.924Z,101217.00
2023-05-02T20:43:43.948Z,101214.00
2023-05-02T20:46:12.012Z,101216.00
2023-05-02T20:48:40.077Z,101218.00
2023-05-02T20:51:07.901Z,101224.00
2023-05-02T20:53:36.218Z,101223.00
2023-05-02T20:56:03.941Z,101230.00
2023-05-02T20:58:31.692Z,101227.00
2023-05-02T21:00:59.709Z,101230.00
2023-05-02T21:03:27.963Z,101226.00
2023-05-02T21:06:01.117Z,101233.00
2023-05-02T21:08:31.548Z,101232.00
2023-05-02T21:10:59.008Z,101241.00
2023-05-02T21:13:27.299Z,101225.00
2023-05-02T21:15:54.647Z,101239.00
2023-05-02T21:18:22.867Z,101242.00
2023-05-02T21:20:50.440Z,101239.00
2023-05-02T21:23:17.944Z,101239.00
2023-05-02T21:25:45.538Z,101246.00
2023-05-02T21:28:12.943Z,101240.00
2023-05-02T21:30:40.224Z,101242.00
2023-05-02T21:33:07.575Z,101240.00
2023-05-02T21:35:35.578Z,101244.00
2023-05-02T21:38:03.367Z,101242.00
2023-05-02T21:40:31.208Z,101249.00
2023-05-02T21:42:58.721Z,101253.00
2023-05-02T21:45:26.385Z,101257.00
2023-05-02T21:47:54.058Z,101252.00
2023-05-02T21:50:21.480Z,101252.00
2023-05-02T21:52:49.655Z,101253.00
2023-05-02T21:55:17.097Z,101245.00
2023-05-02T21:57:44.609Z,101251.00
2023-05-02T22:00:13.089Z,101248.00
2023-05-02T22:02:43.676Z,101258.00
2023-05-02T22:05:13.179Z,101246.00
2023-05-02T22:07:41.167Z,101255.00
2023-05-02T22:10:11.459Z,101256.00
2023-05-02T22:12:40.490Z,101249.00
2023-05-02T22:15:09.795Z,101253.00
2023-05-02T22:17:37.265Z,101260.00
2023-05-02T22:20:09.461Z,101254.00
2023-05-02T22:22:36.897Z,101259.00
2023-05-02T22:25:04.876Z,101264.00
2023-05-02T22:27:33.128Z,101264.00
2023-05-02T22:30:00.890Z,101264.00
2023-05-02T22:32:28.665Z,101258.00
2023-05-02T22:34:56.172Z,101264.00
2023-05-02T22:37:23.664Z,101270.00
2023-05-02T22:39:51.241Z,101260.00
2023-05-02T22:42:19.255Z,101267.00
2023-05-02T22:44:54.532Z,101264.00
2023-05-02T22:47:22.253Z,101273.00
2023-05-02T22:49:50.387Z,101266.00
2023-05-02T22:52:19.781Z,101267.00
2023-05-02T22:54:47.239Z,101279.00
2023-05-02T22:57:14.765Z,101277.00
2023-05-02T22:59:42.202Z,101277.00
2023-05-02T23:02:11.552Z,101281.00
2023-05-02T23:04:39.022Z,101282.00
2023-05-02T23:07:06.492Z,101276.00
2023-05-02T23:09:33.980Z,101284.00
2023-05-02T23:12:05.045Z,101288.00
2023-05-02T23:14:32.541Z,101288.00
2023-05-02T23:17:02.334Z,101282.00
2023-05-02T23:19:31.063Z,101280.00
2023-05-02T23:21:58.823Z,101288.00
2023-05-02T23:24:26.276Z,101286.00
2023-05-02T23:26:53.830Z,101292.00
2023-05-02T23:29:21.466Z,101298.00
2023-05-02T23:31:50.134Z,101300.00
2023-05-02T23:34:17.667Z,101291.00
2023-05-02T23:36:46.366Z,101300.00
2023-05-02T23:39:14.167Z,101296.00
2023-05-02T23:41:41.710Z,101304.00
2023-05-02T23:44:09.139Z,101290.00
2023-05-02T23:46:36.624Z,101301.00
2023-05-02T23:49:04.193Z,101306.00
2023-05-02T23:51:31.745Z,101313.00
2023-05-02T23:54:00.791Z,101309.00
2023-05-02T23:56:28.248Z,101313.00
2023-05-02T23:58:55.921Z,101311.00
